Latest Weather Observations for Oakey

IDQ60901

Issued at 3:31 pm EST Friday 6 May 2016 (issued every 10 minutes, with the page automatically refreshed every 10 minutes)

About weather observations | Map of Brisbane area stations | Latest observations for Brisbane area | Other Formats
Station Details ID: 041359 Name: OAKEY AERO Lat: -27.40 Lon: 151.74 Height: 405.69 m
Data from the previous 72 hours. | See also: Recent months at Oakey
Date/Time
EST
Tmp

°C
App
Tmp
°C
Dew
Point
°C
Rel
Hum
%
Delta-T

°C
Wind Press
QNH
hPa
Press
MSL
hPa
Rain
since
9 am
mm
Dir
 
Spd
km/h
Gust
km/h
Spd
kts
Gust
kts
06/03:00pm 26.8 23.9 8.3 31 10.2 ENE 13 22 7 12 1017.4 1016.7 0.0
06/02:30pm 27.6 25.2 8.5 30 10.6 SSW 11 17 6 9 1017.5 1016.8 0.0
06/02:00pm 27.1 25.1 8.5 31 10.3 ESE 9 19 5 10 1017.6 1016.9 0.0
06/01:30pm 27.3 24.5 8.7 31 10.3 SE 13 24 7 13 1017.6 1016.9 0.0
06/01:00pm 26.7 24.3 8.6 32 10.0 SSW 11 20 6 11 1017.9 1017.3 0.0
06/12:30pm 26.5 25.1 9.4 34 9.6 NNW 7 13 4 7 1018.5 1017.8 0.0
06/12:00pm 26.2 24.8 9.5 35 9.3 SE 7 17 4 9 1019.0 1018.3 0.0
06/11:30am 25.2 23.4 9.5 37 8.8 SE 9 17 5 9 1019.7 1019.0 0.0
06/11:00am 24.9 22.8 9.6 38 8.5 E 11 19 6 10 1020.3 1019.7 0.0
06/10:30am 24.2 22.4 10.8 43 7.6 SE 11 15 6 8 1020.6 1020.0 0.0
06/10:00am 23.8 23.1 12.1 48 6.8 NE 7 15 4 8 1020.9 1020.2 0.0
06/09:30am 22.4 20.3 13.5 57 5.2 NE 17 22 9 12 1020.9 1020.2 0.0
06/09:00am 20.4 18.4 13.8 66 3.9 NE 17 20 9 11 1020.9 1020.2 0.0
06/08:30am 18.0 16.6 14.5 80 2.1 NE 15 19 8 10 1021.0 1020.3 0.0
06/08:00am 15.5 15.3 14.7 95 0.5 NE 9 11 5 6 1020.9 1020.2 0.0
06/07:30am 13.5 12.4 13.2 98 0.2 ESE 11 13 6 7 1020.6 1020.0 0.0
06/07:00am 13.6 11.8 13.4 99 0.1 NE 15 17 8 9 1020.1 1019.5 0.0
06/06:30am 11.1 9.6 10.6 97 0.3 E 9 11 5 6 1020.1 1019.5 0.0
06/06:00am 11.4 9.9 10.6 95 0.4 NE 9 9 5 5 1019.9 1019.3 0.0
06/05:45am 11.8 9.7 11.0 95 0.4 NNE 13 15 7 8 1019.7 1019.0 0.0
06/05:30am 12.7 11.7 12.2 97 0.3 NE 9 11 5 6 1019.6 1018.9 0.0
06/05:00am 13.1 11.5 12.8 98 0.2 NE 13 15 7 8 1019.2 1018.5 0.0
06/04:30am 13.3 11.7 12.8 97 0.3 NNE 13 17 7 9 1019.1 1018.4 0.0
06/04:00am 13.3 12.2 13.0 98 0.2 NE 11 13 6 7 1019.2 1018.5 0.0
06/03:30am 12.2 10.4 10.9 92 0.7 NNE 11 13 6 7 1019.2 1018.5 0.0
06/03:00am 13.2 12.1 11.9 92 0.7 NNE 9 11 5 6 1019.4 1018.7 0.0
06/02:30am 14.1 12.6 13.1 94 0.6 NNE 13 15 7 8 1019.4 1018.7 0.0
06/02:00am 14.0 11.6 12.7 92 0.7 NNE 17 19 9 10 1019.3 1018.6 0.0
06/01:30am 14.5 12.2 13.0 91 0.8 NNE 17 20 9 11 1019.6 1018.9 0.0
06/01:00am 14.6 12.3 13.1 91 0.8 NNE 17 19 9 10 1019.7 1019.0 0.0
06/12:30am 14.6 13.0 12.8 89 1.0 NNE 13 17 7 9 1020.0 1019.4 0.0
06/12:00am 14.2 12.7 11.9 86 1.3 NNE 11 13 6 7 1020.0 1019.4 0.0
 
Date/Time
EST
Tmp

°C
App
Tmp
°C
Dew
Point
°C
Rel
Hum
%
Delta-T

°C
Wind Press
QNH
hPa
Press
MSL
hPa
Rain
since
9 am
mm
Dir
 
Spd
km/h
Gust
km/h
Spd
kts
Gust
kts
05/11:30pm 14.9 12.7 12.2 84 1.5 NNE 15 17 8 9 1020.2 1019.6 0.0
05/11:00pm 15.5 13.1 12.6 83 1.6 NE 17 19 9 10 1020.3 1019.7 0.0
05/10:30pm 16.2 13.8 12.7 80 2.0 NNE 17 20 9 11 1020.3 1019.7 0.0
05/10:00pm 16.3 14.2 12.5 78 2.1 NE 15 17 8 9 1020.4 1019.8 0.0
05/09:30pm 16.4 14.2 12.0 75 2.5 NE 15 17 8 9 1020.4 1019.8 0.0
05/09:00pm 16.7 14.5 10.8 68 3.2 NNE 13 20 7 11 1020.1 1019.5 0.0
05/08:30pm 17.3 14.3 10.7 65 3.6 NNE 17 19 9 10 1020.2 1019.6 0.0
05/08:00pm 16.9 14.5 10.1 64 3.7 NNE 13 15 7 8 1020.2 1019.6 0.0
05/07:30pm 17.7 15.5 10.8 64 3.8 NE 13 19 7 10 1019.9 1019.3 0.0
05/07:00pm 18.3 16.0 10.4 60 4.3 NNE 13 15 7 8 1019.5 1018.8 0.0
05/06:30pm 20.4 17.4 10.5 53 5.5 NNE 17 20 9 11 1019.0 1018.3 0.0
05/06:00pm 21.1 18.1 10.6 51 5.8 NNE 17 19 9 10 1018.6 1017.9 0.0
05/05:30pm 22.3 18.5 9.8 45 6.9 ENE 20 26 11 14 1018.3 1017.6 0.0
05/05:00pm 24.0 20.2 9.9 41 7.9 NNE 20 24 11 13 1017.9 1017.3 0.0
05/04:30pm 25.2 21.8 9.1 36 8.9 ENE 17 32 9 17 1017.7 1017.1 0.0
05/04:00pm 26.2 23.1 8.7 33 9.7 NE 15 20 8 11 1017.7 1017.1 0.0
05/03:30pm 26.7 23.5 8.6 32 10.0 NE 15 22 8 12 1017.8 1017.2 0.0
05/03:00pm 26.8 23.8 6.2 27 10.9 NNE 11 20 6 11 1017.7 1017.1 0.0
05/02:30pm 26.4 23.7 7.4 30 10.3 ESE 11 13 6 7 1017.8 1017.2 0.0
05/02:00pm 26.4 23.3 7.4 30 10.3 NE 13 20 7 11 1017.9 1017.3 0.0
05/01:30pm 26.7 24.4 9.1 33 9.8 NE 11 17 6 9 1018.3 1017.6 0.0
05/01:00pm 26.1 23.9 9.5 35 9.3 NE 11 19 6 10 1018.7 1018.0 0.0
05/12:30pm 25.4 23.1 7.5 32 9.7 NNE 9 24 5 13 1019.1 1018.4 0.0
05/12:00pm 24.8 22.1 7.4 33 9.3 N 11 20 6 11 1019.7 1019.0 0.0
05/11:30am 25.2 23.7 9.1 36 8.9 N 7 17 4 9 1020.2 1019.6 0.0
05/11:00am 23.8 21.2 9.4 40 7.9 NE 13 19 7 10 1020.9 1020.2 0.0
05/10:30am 23.6 21.9 12.3 49 6.6 ENE 13 20 7 11 1021.3 1020.6 0.0
05/10:00am 22.4 20.7 12.4 53 5.8 NE 13 19 7 10 1021.7 1021.0 0.0
05/09:30am 21.0 19.1 12.9 60 4.7 NE 15 20 8 11 1021.9 1021.2 0.0
05/09:00am 19.3 18.2 13.0 67 3.6 NE 11 17 6 9 1022.1 1021.5 0.0
05/08:30am 17.0 15.9 11.9 72 2.8 ENE 9 11 5 6 1022.0 1021.4 0.0
05/08:00am 14.7 13.6 12.0 84 1.5 ENE 9 11 5 6 1021.7 1021.0 0.0
05/07:30am 11.3 11.1 9.2 87 1.1 CALM 0 0 0 0 1021.4 1020.7 0.0
05/07:00am 8.1 7.5 7.2 94 0.4 CALM 0 0 0 0 1021.0 1020.3 0.0
05/06:30am 6.2 5.0 4.7 90 0.7 CALM 0 0 0 0 1020.6 1020.0 0.0
05/06:00am 7.8 7.1 6.9 94 0.4 CALM 0 0 0 0 1020.3 1019.7 0.0
05/05:30am 7.6 5.6 6.4 92 0.6 NNE 6 7 3 4 1020.0 1019.4 0.0
05/05:00am 7.7 5.8 6.5 92 0.6 ENE 6 7 3 4 1019.6 1018.9 0.0
05/04:30am 7.6 5.6 6.4 92 0.6 SE 6 11 3 6 1019.5 1018.8 0.0
05/04:00am 7.4 4.8 6.0 91 0.6 E 9 11 5 6 1019.4 1018.7 0.0
05/03:30am 8.4 6.4 7.2 92 0.6 E 7 9 4 5 1019.4 1018.7 0.0
05/03:00am 8.1 6.0 5.9 86 1.0 NE 6 6 3 3 1019.2 1018.5 0.0
05/02:30am 9.2 7.4 7.2 87 1.0 NNE 6 7 3 4 1019.4 1018.7 0.0
05/02:00am 8.7 7.4 6.0 83 1.3 NNE 2 6 1 3 1019.5 1018.8 0.0
05/01:30am 9.2 7.6 6.5 83 1.3 ESE 4 6 2 3 1019.6 1018.9 0.0
05/01:00am 9.6 7.1 6.5 81 1.5 ESE 9 9 5 5 1019.7 1019.0 0.0
05/12:30am 11.0 9.2 7.1 77 1.9 S 6 7 3 4 1020.0 1019.4 0.0
05/12:00am 10.1 9.3 6.3 77 1.8 CALM 0 0 0 0 1020.1 1019.5 0.0
 
Date/Time
EST
Tmp

°C
App
Tmp
°C
Dew
Point
°C
Rel
Hum
%
Delta-T

°C
Wind Press
QNH
hPa
Press
MSL
hPa
Rain
since
9 am
mm
Dir
 
Spd
km/h
Gust
km/h
Spd
kts
Gust
kts
04/11:41pm 10.5 8.5 6.3 75 2.0 SE 6 6 3 3 1020.2 1019.6 0.0
04/11:30pm 10.3 8.6 6.1 75 2.0 SE 4 6 2 3 1020.2 1019.6 0.0
04/11:00pm 10.9 10.0 6.1 72 2.3 CALM 0 2 0 1 1020.4 1019.8 0.0
04/10:30pm 10.9 8.9 6.1 72 2.3 NNE 6 7 3 4 1020.5 1019.9 0.0
04/10:00pm 11.3 8.6 5.4 67 2.8 N 9 11 5 6 1020.6 1020.0 0.0
04/09:30pm 11.2 8.8 5.3 67 2.8 N 7 9 4 5 1020.5 1019.9 0.0
04/09:00pm 12.2 10.1 6.0 66 3.0 NNE 6 9 3 5 1020.1 1019.5 0.0
04/08:30pm 12.6 10.6 6.4 66 3.0 NE 6 9 3 5 1019.9 1019.3 0.0
04/08:00pm 12.8 9.6 5.2 60 3.6 ESE 11 13 6 7 1019.5 1018.8 0.0
04/07:30pm 14.7 11.9 5.2 53 4.6 SSE 9 13 5 7 1019.1 1018.4 0.0
04/07:00pm 17.6 14.6 5.9 46 5.8 SSW 11 15 6 8 1018.6 1017.9 0.0
04/06:30pm 18.5 14.8 6.4 45 6.1 SW 15 17 8 9 1018.0 1017.4 0.0
04/06:00pm 19.4 16.1 6.2 42 6.7 SW 13 17 7 9 1017.6 1016.9 0.0
04/05:30pm 20.8 17.0 5.6 37 7.7 SW 15 17 8 9 1017.1 1016.4 0.0
04/05:00pm 23.2 18.9 5.2 31 9.2 WSW 17 20 9 11 1016.8 1016.1 0.0
04/04:30pm 24.5 19.6 4.3 27 10.2 SW 19 22 10 12 1016.5 1015.8 0.0
04/04:00pm 25.4 21.8 5.1 27 10.5 WSW 13 22 7 12 1016.3 1015.6 0.0
04/03:30pm 25.4 20.6 4.5 26 10.7 W 19 28 10 15 1016.1 1015.4 0.0
04/03:00pm 25.3 21.3 5.0 27 10.5 SW 15 22 8 12 1016.0 1015.3 0.0
04/02:30pm 25.3 20.7 5.5 28 10.3 SSW 19 32 10 17 1015.8 1015.1 0.0
04/02:00pm 25.3 20.6 6.0 29 10.1 SW 20 30 11 16 1016.0 1015.3 0.0
04/01:30pm 25.3 20.8 6.0 29 10.1 SW 19 32 10 17 1015.9 1015.2 0.0
04/01:00pm 24.7 20.3 4.5 27 10.3 SW 17 30 9 16 1016.1 1015.4 0.0
04/12:30pm 23.8 19.3 6.1 32 9.2 WSW 19 30 10 16 1016.5 1015.8 0.0
04/12:00pm 24.0 19.8 5.8 31 9.4 SW 17 24 9 13 1017.0 1016.3 0.0
04/11:30am 23.7 19.1 5.6 31 9.3 SW 19 24 10 13 1017.5 1016.8 0.0
04/11:00am 22.5 18.9 6.7 36 8.2 SW 15 24 8 13 1018.2 1017.5 0.0
04/10:30am 21.7 19.2 8.2 42 7.2 SW 11 20 6 11 1018.8 1018.1 0.0
04/10:00am 21.8 17.8 9.0 44 6.9 SW 20 26 11 14 1019.0 1018.3 0.0
04/09:30am 20.3 18.6 12.5 61 4.5 SW 13 19 7 10 1019.2 1018.5 0.0
04/09:00am 18.9 17.0 12.9 68 3.4 SW 15 20 8 11 1019.2 1018.5 0.0
04/08:30am 17.3 17.1 14.8 85 1.5 WSW 9 13 5 7 1019.1 1018.4 0.0
04/08:00am 15.7 15.9 14.7 94 0.6 W 7 11 4 6 1018.9 1018.2 0.0
04/07:30am 15.4 15.0 15.2 99 0.1 WNW 11 13 6 7 1018.7 1018.0 0.0
04/07:00am 13.8 13.8 13.5 98 0.2 NW 6 7 3 4 1018.0 1017.4 0.0
04/06:30am 12.9 11.9 12.4 97 0.3 NW 9 11 5 6 1017.7 1017.1 0.0
04/06:23am 12.9 11.6 12.4 97 0.3 NW 11 13 6 7 1017.6 1016.9 0.0
04/06:09am 12.8 11.7 11.9 94 0.5 NNW 9 13 5 7 1017.4 1016.7 0.0
04/06:00am 13.1 13.3 11.8 92 0.7 SW 2 6 1 3 1017.2 1016.5 0.0
04/05:30am 14.4 13.0 13.3 93 0.6 SSW 13 15 7 8 1016.6 1015.9 0.0
04/05:00am 14.7 14.6 13.9 95 0.5 SW 7 9 4 5 1016.5 1015.8 0.0
04/04:30am 14.2 14.5 13.4 95 0.5 NNW 4 6 2 3 1016.2 1015.5 0.0
04/04:00am 14.0 13.8 13.1 94 0.5 ESE 6 6 3 3 1015.9 1015.2 0.0
04/03:30am 13.8 14.6 12.5 92 0.7 CALM 0 0 0 0 1015.6 1014.9 0.0
04/03:00am 14.1 15.0 12.8 92 0.7 CALM 0 0 0 0 1015.6 1014.9 0.0
04/02:30am 14.4 14.2 13.0 91 0.8 N 6 7 3 4 1015.7 1015.0 0.0
04/02:00am 14.7 14.4 13.4 92 0.7 NNE 7 9 4 5 1015.3 1014.6 0.0
04/01:30am 14.6 13.9 13.1 91 0.8 NNW 9 9 5 5 1015.7 1015.0 0.0
04/01:00am 14.6 13.7 12.6 88 1.1 NNE 9 11 5 6 1015.6 1014.9 0.0
04/12:30am 14.9 14.3 13.4 91 0.9 NNE 9 11 5 6 1015.9 1015.2 0.0
04/12:00am 15.1 14.7 13.1 88 1.1 NNE 7 7 4 4 1015.8 1015.1 0.0
 
Date/Time
EST
Tmp

°C
App
Tmp
°C
Dew
Point
°C
Rel
Hum
%
Delta-T

°C
Wind Press
QNH
hPa
Press
MSL
hPa
Rain
since
9 am
mm
Dir
 
Spd
km/h
Gust
km/h
Spd
kts
Gust
kts
03/11:30pm 16.0 17.2 13.8 87 1.3 CALM 0 0 0 0 1015.9 1015.2 0.0
03/11:00pm 16.0 17.2 13.8 87 1.3 CALM 0 0 0 0 1016.0 1015.3 0.0
03/10:30pm 16.6 17.9 14.1 85 1.4 CALM 0 0 0 0 1015.9 1015.2 0.0
03/10:00pm 17.1 18.4 14.0 82 1.8 CALM 0 0 0 0 1016.1 1015.4 0.0
03/09:30pm 18.0 18.2 14.3 79 2.2 SSW 6 9 3 5 1015.9 1015.2 0.0
03/09:00pm 18.4 18.1 14.5 78 2.3 SW 9 13 5 7 1016.0 1015.3 0.0
03/08:30pm 18.6 18.3 14.3 76 2.5 WSW 9 9 5 5 1016.1 1015.4 0.0
03/08:00pm 18.1 18.2 14.4 79 2.2 W 7 9 4 5 1015.8 1015.1 0.0
03/07:30pm 18.1 18.4 14.4 79 2.2 WNW 6 9 3 5 1015.6 1014.9 0.0
03/07:00pm 19.7 19.4 14.5 72 3.1 SSW 9 11 5 6 1015.2 1014.5 0.0
03/06:30pm 20.4 19.8 14.7 70 3.4 SSW 11 13 6 7 1014.6 1013.9 0.0
03/06:00pm 20.9 20.4 14.8 68 3.6 S 11 15 6 8 1014.3 1013.6 0.0
03/05:30pm 22.0 19.9 14.6 63 4.4 SSW 19 22 10 12 1013.9 1013.2 0.0
03/05:00pm 23.0 21.6 14.6 59 5.1 SW 15 20 8 11 1013.4 1012.6 0.0
03/04:30pm 24.1 23.0 14.2 54 5.9 SW 13 17 7 9 1013.0 1012.2 0.0
03/04:00pm 24.8 23.8 14.6 53 6.2 WSW 13 15 7 8 1012.8 1012.1 0.0

Latest Capital City Observations: Canberra | Sydney | Melbourne | Brisbane | Adelaide | Perth | Hobart | Darwin

Other Formats:

Comma delimited format used in spreadsheet applications
http://www.bom.gov.au/fwo/IDQ60901/IDQ60901.94552.axf

JavaScript Object Notation format (JSON) in row-major order
http://www.bom.gov.au/fwo/IDQ60901/IDQ60901.94552.json